sensor_id;sensor_type;location;lat;lon;timestamp;P1;durP1;ratioP1;P2;durP2;ratioP2
14892;SDS011;7538;53.626;9.906;2023-09-18T00:00:51;6.50;;;5.90;;
14892;SDS011;7538;53.626;9.906;2023-09-18T00:03:17;7.30;;;6.55;;
14892;SDS011;7538;53.626;9.906;2023-09-18T00:05:46;6.95;;;6.35;;
14892;SDS011;7538;53.626;9.906;2023-09-18T00:08:14;7.20;;;6.60;;
14892;SDS011;7538;53.626;9.906;2023-09-18T00:10:41;6.88;;;6.35;;
14892;SDS011;7538;53.626;9.906;2023-09-18T00:13:09;6.88;;;6.28;;
14892;SDS011;7538;53.626;9.906;2023-09-18T00:15:35;7.55;;;6.95;;
14892;SDS011;7538;53.626;9.906;2023-09-18T00:18:03;6.80;;;6.20;;
14892;SDS011;7538;53.626;9.906;2023-09-18T00:20:30;7.30;;;6.60;;
14892;SDS011;7538;53.626;9.906;2023-09-18T00:22:58;7.55;;;6.78;;
14892;SDS011;7538;53.626;9.906;2023-09-18T00:25:25;7.53;;;6.82;;
14892;SDS011;7538;53.626;9.906;2023-09-18T00:27:52;6.90;;;6.30;;
14892;SDS011;7538;53.626;9.906;2023-09-18T00:30:19;7.13;;;6.50;;
14892;SDS011;7538;53.626;9.906;2023-09-18T00:32:45;7.15;;;6.55;;
14892;SDS011;7538;53.626;9.906;2023-09-18T00:35:14;7.82;;;7.10;;
14892;SDS011;7538;53.626;9.906;2023-09-18T00:37:42;7.55;;;6.85;;
14892;SDS011;7538;53.626;9.906;2023-09-18T00:40:11;7.20;;;6.50;;
14892;SDS011;7538;53.626;9.906;2023-09-18T00:42:38;7.13;;;6.43;;
14892;SDS011;7538;53.626;9.906;2023-09-18T00:45:05;7.43;;;6.80;;
14892;SDS011;7538;53.626;9.906;2023-09-18T00:47:33;6.70;;;6.15;;
14892;SDS011;7538;53.626;9.906;2023-09-18T00:50:01;7.03;;;6.43;;
14892;SDS011;7538;53.626;9.906;2023-09-18T00:52:30;7.03;;;6.43;;
14892;SDS011;7538;53.626;9.906;2023-09-18T00:54:58;7.57;;;6.90;;
14892;SDS011;7538;53.626;9.906;2023-09-18T00:57:27;7.72;;;6.35;;
14892;SDS011;7538;53.626;9.906;2023-09-18T00:59:55;7.53;;;6.82;;
14892;SDS011;7538;53.626;9.906;2023-09-18T01:02:21;7.45;;;6.75;;
14892;SDS011;7538;53.626;9.906;2023-09-18T01:04:48;7.47;;;6.72;;
14892;SDS011;7538;53.626;9.906;2023-09-18T01:07:15;6.95;;;6.35;;
14892;SDS011;7538;53.626;9.906;2023-09-18T01:09:43;8.00;;;7.30;;
14892;SDS011;7538;53.626;9.906;2023-09-18T01:12:11;8.00;;;7.22;;
14892;SDS011;7538;53.626;9.906;2023-09-18T01:14:54;7.70;;;7.07;;
14892;SDS011;7538;53.626;9.906;2023-09-18T01:17:26;7.43;;;6.72;;
14892;SDS011;7538;53.626;9.906;2023-09-18T01:19:53;7.43;;;6.82;;
14892;SDS011;7538;53.626;9.906;2023-09-18T01:22:20;6.97;;;6.30;;
14892;SDS011;7538;53.626;9.906;2023-09-18T01:24:49;6.85;;;6.25;;
14892;SDS011;7538;53.626;9.906;2023-09-18T01:27:16;7.32;;;6.63;;
14892;SDS011;7538;53.626;9.906;2023-09-18T01:29:45;7.32;;;6.72;;
14892;SDS011;7538;53.626;9.906;2023-09-18T01:32:14;7.30;;;6.70;;
14892;SDS011;7538;53.626;9.906;2023-09-18T01:34:42;7.20;;;6.50;;
14892;SDS011;7538;53.626;9.906;2023-09-18T01:37:11;8.13;;;7.43;;
14892;SDS011;7538;53.626;9.906;2023-09-18T01:39:40;7.60;;;6.90;;
14892;SDS011;7538;53.626;9.906;2023-09-18T01:42:09;7.38;;;6.70;;
14892;SDS011;7538;53.626;9.906;2023-09-18T01:44:36;8.05;;;7.35;;
14892;SDS011;7538;53.626;9.906;2023-09-18T01:47:04;7.30;;;6.60;;
14892;SDS011;7538;53.626;9.906;2023-09-18T01:49:33;9.15;;;7.28;;
14892;SDS011;7538;53.626;9.906;2023-09-18T01:52:01;7.28;;;6.65;;
14892;SDS011;7538;53.626;9.906;2023-09-18T01:54:29;7.90;;;7.10;;
14892;SDS011;7538;53.626;9.906;2023-09-18T01:56:56;7.40;;;6.78;;
14892;SDS011;7538;53.626;9.906;2023-09-18T01:59:25;8.50;;;7.80;;
14892;SDS011;7538;53.626;9.906;2023-09-18T02:01:52;7.43;;;6.78;;
14892;SDS011;7538;53.626;9.906;2023-09-18T02:04:19;7.55;;;6.85;;
14892;SDS011;7538;53.626;9.906;2023-09-18T02:06:48;7.78;;;6.95;;
14892;SDS011;7538;53.626;9.906;2023-09-18T02:09:15;9.20;;;6.88;;
14892;SDS011;7538;53.626;9.906;2023-09-18T02:11:43;7.43;;;6.72;;
14892;SDS011;7538;53.626;9.906;2023-09-18T02:14:11;9.27;;;7.68;;
14892;SDS011;7538;53.626;9.906;2023-09-18T02:16:39;7.25;;;6.60;;
14892;SDS011;7538;53.626;9.906;2023-09-18T02:19:07;7.28;;;6.57;;
14892;SDS011;7538;53.626;9.906;2023-09-18T02:21:35;7.38;;;6.78;;
14892;SDS011;7538;53.626;9.906;2023-09-18T02:24:02;7.68;;;6.97;;
14892;SDS011;7538;53.626;9.906;2023-09-18T02:26:29;7.15;;;6.55;;
14892;SDS011;7538;53.626;9.906;2023-09-18T02:28:57;7.47;;;6.85;;
14892;SDS011;7538;53.626;9.906;2023-09-18T02:31:26;7.70;;;7.05;;
14892;SDS011;7538;53.626;9.906;2023-09-18T02:33:55;7.32;;;6.72;;
14892;SDS011;7538;53.626;9.906;2023-09-18T02:36:23;10.32;;;7.43;;
14892;SDS011;7538;53.626;9.906;2023-09-18T02:38:50;7.47;;;6.78;;
14892;SDS011;7538;53.626;9.906;2023-09-18T02:41:16;7.80;;;7.20;;
14892;SDS011;7538;53.626;9.906;2023-09-18T02:43:43;8.35;;;7.55;;
14892;SDS011;7538;53.626;9.906;2023-09-18T02:46:10;7.53;;;6.88;;
14892;SDS011;7538;53.626;9.906;2023-09-18T02:48:37;7.20;;;6.60;;
14892;SDS011;7538;53.626;9.906;2023-09-18T02:51:05;7.53;;;6.82;;
14892;SDS011;7538;53.626;9.906;2023-09-18T02:53:32;7.32;;;6.65;;
14892;SDS011;7538;53.626;9.906;2023-09-18T02:55:59;8.18;;;7.47;;
14892;SDS011;7538;53.626;9.906;2023-09-18T02:58:26;7.50;;;6.90;;
14892;SDS011;7538;53.626;9.906;2023-09-18T03:00:55;8.68;;;7.78;;
14892;SDS011;7538;53.626;9.906;2023-09-18T03:03:23;7.50;;;6.90;;
14892;SDS011;7538;53.626;9.906;2023-09-18T03:05:50;7.47;;;6.78;;
14892;SDS011;7538;53.626;9.906;2023-09-18T03:08:18;8.13;;;7.40;;
14892;SDS011;7538;53.626;9.906;2023-09-18T03:10:45;8.88;;;8.18;;
14892;SDS011;7538;53.626;9.906;2023-09-18T03:13:13;8.25;;;7.55;;
14892;SDS011;7538;53.626;9.906;2023-09-18T03:15:44;8.48;;;7.68;;
14892;SDS011;7538;53.626;9.906;2023-09-18T03:18:12;8.60;;;7.70;;
14892;SDS011;7538;53.626;9.906;2023-09-18T03:20:38;8.18;;;7.47;;
14892;SDS011;7538;53.626;9.906;2023-09-18T03:23:05;8.23;;;7.50;;
14892;SDS011;7538;53.626;9.906;2023-09-18T03:25:34;8.52;;;7.75;;
14892;SDS011;7538;53.626;9.906;2023-09-18T03:28:02;7.63;;;7.03;;
14892;SDS011;7538;53.626;9.906;2023-09-18T03:30:29;8.10;;;7.50;;
14892;SDS011;7538;53.626;9.906;2023-09-18T03:32:56;8.30;;;7.50;;
14892;SDS011;7538;53.626;9.906;2023-09-18T03:35:23;8.43;;;7.68;;
14892;SDS011;7538;53.626;9.906;2023-09-18T03:37:51;8.93;;;7.15;;
14892;SDS011;7538;53.626;9.906;2023-09-18T03:40:19;7.90;;;7.10;;
14892;SDS011;7538;53.626;9.906;2023-09-18T03:42:48;7.93;;;7.20;;
14892;SDS011;7538;53.626;9.906;2023-09-18T03:45:15;8.00;;;7.13;;
14892;SDS011;7538;53.626;9.906;2023-09-18T03:47:44;8.90;;;7.78;;
14892;SDS011;7538;53.626;9.906;2023-09-18T03:50:11;8.35;;;7.55;;
14892;SDS011;7538;53.626;9.906;2023-09-18T03:52:38;7.93;;;7.20;;
14892;SDS011;7538;53.626;9.906;2023-09-18T03:55:06;8.45;;;7.65;;
14892;SDS011;7538;53.626;9.906;2023-09-18T03:57:33;8.70;;;7.97;;
14892;SDS011;7538;53.626;9.906;2023-09-18T04:00:03;9.40;;;8.43;;
14892;SDS011;7538;53.626;9.906;2023-09-18T04:02:32;8.65;;;7.55;;
14892;SDS011;7538;53.626;9.906;2023-09-18T04:05:00;8.50;;;7.70;;
14892;SDS011;7538;53.626;9.906;2023-09-18T04:07:27;8.20;;;7.50;;
14892;SDS011;7538;53.626;9.906;2023-09-18T04:09:54;8.85;;;8.15;;
14892;SDS011;7538;53.626;9.906;2023-09-18T04:12:21;8.85;;;8.05;;
14892;SDS011;7538;53.626;9.906;2023-09-18T04:14:48;9.00;;;8.10;;
14892;SDS011;7538;53.626;9.906;2023-09-18T04:17:17;8.90;;;8.10;;
14892;SDS011;7538;53.626;9.906;2023-09-18T04:19:45;8.10;;;7.35;;
14892;SDS011;7538;53.626;9.906;2023-09-18T04:22:13;9.05;;;8.25;;
14892;SDS011;7538;53.626;9.906;2023-09-18T04:24:40;8.50;;;7.80;;
14892;SDS011;7538;53.626;9.906;2023-09-18T04:27:06;9.23;;;8.32;;
14892;SDS011;7538;53.626;9.906;2023-09-18T04:29:33;8.63;;;7.82;;
14892;SDS011;7538;53.626;9.906;2023-09-18T04:32:00;8.60;;;7.90;;
14892;SDS011;7538;53.626;9.906;2023-09-18T04:34:30;8.82;;;8.02;;
14892;SDS011;7538;53.626;9.906;2023-09-18T04:36:57;8.70;;;8.00;;
14892;SDS011;7538;53.626;9.906;2023-09-18T04:39:24;9.25;;;8.25;;
14892;SDS011;7538;53.626;9.906;2023-09-18T04:41:51;9.05;;;8.18;;
14892;SDS011;7538;53.626;9.906;2023-09-18T04:44:18;8.77;;;7.88;;
14892;SDS011;7538;53.626;9.906;2023-09-18T04:46:44;9.50;;;8.60;;
14892;SDS011;7538;53.626;9.906;2023-09-18T04:49:12;8.27;;;7.47;;
14892;SDS011;7538;53.626;9.906;2023-09-18T04:51:41;8.18;;;7.35;;
14892;SDS011;7538;53.626;9.906;2023-09-18T04:54:09;8.77;;;7.88;;
14892;SDS011;7538;53.626;9.906;2023-09-18T04:56:36;9.18;;;7.78;;
14892;SDS011;7538;53.626;9.906;2023-09-18T04:59:03;9.43;;;8.52;;
14892;SDS011;7538;53.626;9.906;2023-09-18T05:01:29;9.00;;;8.20;;
14892;SDS011;7538;53.626;9.906;2023-09-18T05:03:57;8.98;;;8.07;;
14892;SDS011;7538;53.626;9.906;2023-09-18T05:06:24;8.70;;;7.90;;
14892;SDS011;7538;53.626;9.906;2023-09-18T05:08:52;9.05;;;7.90;;
14892;SDS011;7538;53.626;9.906;2023-09-18T05:11:19;8.85;;;8.05;;
14892;SDS011;7538;53.626;9.906;2023-09-18T05:13:46;9.68;;;8.75;;
14892;SDS011;7538;53.626;9.906;2023-09-18T05:16:13;9.20;;;8.38;;
14892;SDS011;7538;53.626;9.906;2023-09-18T05:18:39;9.73;;;8.77;;
14892;SDS011;7538;53.626;9.906;2023-09-18T05:21:08;9.13;;;8.30;;
14892;SDS011;7538;53.626;9.906;2023-09-18T05:23:35;9.05;;;8.25;;
14892;SDS011;7538;53.626;9.906;2023-09-18T05:26:04;8.85;;;8.05;;
14892;SDS011;7538;53.626;9.906;2023-09-18T05:28:30;9.32;;;8.38;;
14892;SDS011;7538;53.626;9.906;2023-09-18T05:30:57;9.55;;;7.95;;
14892;SDS011;7538;53.626;9.906;2023-09-18T05:33:25;8.98;;;8.18;;
14892;SDS011;7538;53.626;9.906;2023-09-18T05:35:52;9.25;;;8.32;;
14892;SDS011;7538;53.626;9.906;2023-09-18T05:38:19;8.60;;;7.53;;
14892;SDS011;7538;53.626;9.906;2023-09-18T05:40:46;8.55;;;7.70;;
14892;SDS011;7538;53.626;9.906;2023-09-18T05:43:14;9.50;;;7.88;;
14892;SDS011;7538;53.626;9.906;2023-09-18T05:45:41;9.43;;;7.90;;
14892;SDS011;7538;53.626;9.906;2023-09-18T05:48:07;10.02;;;8.25;;
14892;SDS011;7538;53.626;9.906;2023-09-18T05:50:35;9.43;;;8.60;;
14892;SDS011;7538;53.626;9.906;2023-09-18T05:53:02;8.85;;;8.05;;
14892;SDS011;7538;53.626;9.906;2023-09-18T05:55:30;9.20;;;7.68;;
14892;SDS011;7538;53.626;9.906;2023-09-18T05:57:57;8.48;;;7.63;;
14892;SDS011;7538;53.626;9.906;2023-09-18T06:00:25;8.75;;;7.95;;
14892;SDS011;7538;53.626;9.906;2023-09-18T06:02:52;10.73;;;8.60;;
14892;SDS011;7538;53.626;9.906;2023-09-18T06:05:19;9.73;;;8.20;;
14892;SDS011;7538;53.626;9.906;2023-09-18T06:07:47;8.65;;;7.85;;
14892;SDS011;7538;53.626;9.906;2023-09-18T06:10:14;9.93;;;8.35;;
14892;SDS011;7538;53.626;9.906;2023-09-18T06:12:42;9.25;;;8.07;;
14892;SDS011;7538;53.626;9.906;2023-09-18T06:15:10;9.05;;;8.25;;
14892;SDS011;7538;53.626;9.906;2023-09-18T06:17:39;9.02;;;8.13;;
14892;SDS011;7538;53.626;9.906;2023-09-18T06:20:07;8.73;;;7.60;;
14892;SDS011;7538;53.626;9.906;2023-09-18T06:22:36;8.77;;;7.88;;
14892;SDS011;7538;53.626;9.906;2023-09-18T06:25:04;8.23;;;7.47;;
14892;SDS011;7538;53.626;9.906;2023-09-18T06:27:33;8.77;;;7.80;;
14892;SDS011;7538;53.626;9.906;2023-09-18T06:30:01;7.72;;;7.13;;
14892;SDS011;7538;53.626;9.906;2023-09-18T06:32:28;8.95;;;8.05;;
14892;SDS011;7538;53.626;9.906;2023-09-18T06:34:57;10.05;;;7.75;;
14892;SDS011;7538;53.626;9.906;2023-09-18T06:37:23;8.05;;;7.20;;
14892;SDS011;7538;53.626;9.906;2023-09-18T06:39:50;8.90;;;6.93;;
14892;SDS011;7538;53.626;9.906;2023-09-18T06:42:18;9.52;;;7.38;;
14892;SDS011;7538;53.626;9.906;2023-09-18T06:44:45;7.78;;;6.80;;
14892;SDS011;7538;53.626;9.906;2023-09-18T06:47:12;7.43;;;6.72;;
14892;SDS011;7538;53.626;9.906;2023-09-18T06:49:39;7.93;;;7.15;;
14892;SDS011;7538;53.626;9.906;2023-09-18T06:52:08;8.07;;;7.28;;
14892;SDS011;7538;53.626;9.906;2023-09-18T06:54:35;7.80;;;7.10;;
14892;SDS011;7538;53.626;9.906;2023-09-18T06:57:02;8.73;;;7.90;;
14892;SDS011;7538;53.626;9.906;2023-09-18T06:59:29;9.40;;;7.78;;
14892;SDS011;7538;53.626;9.906;2023-09-18T07:01:58;9.48;;;8.43;;
14892;SDS011;7538;53.626;9.906;2023-09-18T07:04:26;8.95;;;7.85;;
14892;SDS011;7538;53.626;9.906;2023-09-18T07:06:52;8.57;;;7.60;;
14892;SDS011;7538;53.626;9.906;2023-09-18T07:09:21;7.40;;;6.80;;
14892;SDS011;7538;53.626;9.906;2023-09-18T07:11:48;8.82;;;7.90;;
14892;SDS011;7538;53.626;9.906;2023-09-18T07:14:15;9.80;;;7.18;;
14892;SDS011;7538;53.626;9.906;2023-09-18T07:16:42;7.95;;;7.22;;
14892;SDS011;7538;53.626;9.906;2023-09-18T07:19:09;10.63;;;7.05;;
14892;SDS011;7538;53.626;9.906;2023-09-18T07:21:41;7.57;;;6.88;;
14892;SDS011;7538;53.626;9.906;2023-09-18T07:24:08;7.53;;;6.75;;
14892;SDS011;7538;53.626;9.906;2023-09-18T07:26:42;6.88;;;6.13;;
14892;SDS011;7538;53.626;9.906;2023-09-18T07:29:10;7.95;;;7.15;;
14892;SDS011;7538;53.626;9.906;2023-09-18T07:31:38;6.80;;;6.18;;
14892;SDS011;7538;53.626;9.906;2023-09-18T07:34:05;9.55;;;7.15;;
14892;SDS011;7538;53.626;9.906;2023-09-18T07:36:32;8.30;;;6.80;;
14892;SDS011;7538;53.626;9.906;2023-09-18T07:38:59;7.10;;;6.50;;
14892;SDS011;7538;53.626;9.906;2023-09-18T07:41:26;8.68;;;6.97;;
14892;SDS011;7538;53.626;9.906;2023-09-18T07:43:54;7.07;;;6.38;;
14892;SDS011;7538;53.626;9.906;2023-09-18T07:46:22;8.82;;;7.18;;
14892;SDS011;7538;53.626;9.906;2023-09-18T07:48:49;7.50;;;6.80;;
14892;SDS011;7538;53.626;9.906;2023-09-18T07:51:16;7.90;;;6.75;;
14892;SDS011;7538;53.626;9.906;2023-09-18T07:53:43;8.25;;;6.97;;
14892;SDS011;7538;53.626;9.906;2023-09-18T07:56:10;7.70;;;6.60;;
14892;SDS011;7538;53.626;9.906;2023-09-18T07:58:37;7.15;;;6.55;;
14892;SDS011;7538;53.626;9.906;2023-09-18T08:01:05;6.75;;;6.15;;
14892;SDS011;7538;53.626;9.906;2023-09-18T08:03:34;7.60;;;6.90;;
14892;SDS011;7538;53.626;9.906;2023-09-18T08:06:01;6.32;;;5.72;;
14892;SDS011;7538;53.626;9.906;2023-09-18T08:08:29;7.63;;;6.80;;
14892;SDS011;7538;53.626;9.906;2023-09-18T08:10:58;8.27;;;6.47;;
14892;SDS011;7538;53.626;9.906;2023-09-18T08:13:26;7.13;;;6.50;;
14892;SDS011;7538;53.626;9.906;2023-09-18T08:15:54;7.18;;;6.57;;
14892;SDS011;7538;53.626;9.906;2023-09-18T08:18:22;9.65;;;6.40;;
14892;SDS011;7538;53.626;9.906;2023-09-18T08:20:51;7.20;;;6.47;;
14892;SDS011;7538;53.626;9.906;2023-09-18T08:23:19;8.75;;;6.70;;
14892;SDS011;7538;53.626;9.906;2023-09-18T08:25:46;6.93;;;6.30;;
14892;SDS011;7538;53.626;9.906;2023-09-18T08:28:13;9.50;;;7.70;;
14892;SDS011;7538;53.626;9.906;2023-09-18T08:30:41;8.13;;;7.05;;
14892;SDS011;7538;53.626;9.906;2023-09-18T08:33:12;6.90;;;6.22;;
14892;SDS011;7538;53.626;9.906;2023-09-18T08:35:40;9.48;;;7.28;;
14892;SDS011;7538;53.626;9.906;2023-09-18T08:38:07;9.20;;;6.90;;
14892;SDS011;7538;53.626;9.906;2023-09-18T08:40:34;7.95;;;7.20;;
14892;SDS011;7538;53.626;9.906;2023-09-18T08:43:03;7.53;;;6.80;;
14892;SDS011;7538;53.626;9.906;2023-09-18T08:45:31;9.93;;;7.07;;
14892;SDS011;7538;53.626;9.906;2023-09-18T08:48:04;7.90;;;7.15;;
14892;SDS011;7538;53.626;9.906;2023-09-18T08:50:32;7.22;;;6.53;;
14892;SDS011;7538;53.626;9.906;2023-09-18T08:53:00;7.30;;;6.68;;
14892;SDS011;7538;53.626;9.906;2023-09-18T08:55:27;11.63;;;6.63;;
14892;SDS011;7538;53.626;9.906;2023-09-18T08:57:55;7.40;;;6.70;;
14892;SDS011;7538;53.626;9.906;2023-09-18T09:00:24;7.05;;;6.38;;
14892;SDS011;7538;53.626;9.906;2023-09-18T09:02:51;8.50;;;7.07;;
14892;SDS011;7538;53.626;9.906;2023-09-18T09:05:19;7.10;;;6.45;;
14892;SDS011;7538;53.626;9.906;2023-09-18T09:07:46;7.90;;;7.20;;
14892;SDS011;7538;53.626;9.906;2023-09-18T09:10:15;6.97;;;6.38;;
14892;SDS011;7538;53.626;9.906;2023-09-18T09:12:51;7.15;;;6.55;;
14892;SDS011;7538;53.626;9.906;2023-09-18T09:15:19;7.10;;;6.38;;
14892;SDS011;7538;53.626;9.906;2023-09-18T09:17:47;7.47;;;6.78;;
14892;SDS011;7538;53.626;9.906;2023-09-18T09:20:15;7.30;;;6.40;;
14892;SDS011;7538;53.626;9.906;2023-09-18T09:22:44;7.57;;;6.80;;
14892;SDS011;7538;53.626;9.906;2023-09-18T09:25:22;8.05;;;6.32;;
14892;SDS011;7538;53.626;9.906;2023-09-18T09:27:53;7.15;;;6.50;;
14892;SDS011;7538;53.626;9.906;2023-09-18T09:30:21;6.97;;;5.93;;
14892;SDS011;7538;53.626;9.906;2023-09-18T09:32:49;7.43;;;6.40;;
14892;SDS011;7538;53.626;9.906;2023-09-18T09:35:19;6.75;;;6.00;;
14892;SDS011;7538;53.626;9.906;2023-09-18T09:37:52;6.55;;;5.95;;
14892;SDS011;7538;53.626;9.906;2023-09-18T09:40:21;6.60;;;5.82;;
14892;SDS011;7538;53.626;9.906;2023-09-18T09:42:53;6.85;;;6.13;;
14892;SDS011;7538;53.626;9.906;2023-09-18T09:45:25;7.00;;;6.15;;
14892;SDS011;7538;53.626;9.906;2023-09-18T09:47:54;7.30;;;6.10;;
14892;SDS011;7538;53.626;9.906;2023-09-18T09:50:22;6.90;;;5.85;;
14892;SDS011;7538;53.626;9.906;2023-09-18T09:52:51;6.97;;;5.63;;
14892;SDS011;7538;53.626;9.906;2023-09-18T09:55:20;7.60;;;5.78;;
14892;SDS011;7538;53.626;9.906;2023-09-18T09:57:51;6.22;;;5.72;;
14892;SDS011;7538;53.626;9.906;2023-09-18T10:00:19;6.20;;;5.55;;
14892;SDS011;7538;53.626;9.906;2023-09-18T10:02:55;6.00;;;5.35;;
14892;SDS011;7538;53.626;9.906;2023-09-18T10:05:24;9.45;;;6.38;;
14892;SDS011;7538;53.626;9.906;2023-09-18T10:07:56;6.85;;;6.20;;
14892;SDS011;7538;53.626;9.906;2023-09-18T10:10:27;8.25;;;5.60;;
14892;SDS011;7538;53.626;9.906;2023-09-18T10:12:57;6.80;;;5.38;;
14892;SDS011;7538;53.626;9.906;2023-09-18T10:15:27;5.45;;;4.70;;
14892;SDS011;7538;53.626;9.906;2023-09-18T10:17:58;5.75;;;5.07;;
14892;SDS011;7538;53.626;9.906;2023-09-18T10:20:29;5.10;;;4.60;;
14892;SDS011;7538;53.626;9.906;2023-09-18T10:22:57;6.95;;;4.75;;
14892;SDS011;7538;53.626;9.906;2023-09-18T10:25:29;6.80;;;4.65;;
14892;SDS011;7538;53.626;9.906;2023-09-18T10:27:57;5.43;;;4.78;;
14892;SDS011;7538;53.626;9.906;2023-09-18T10:30:28;5.32;;;4.82;;
14892;SDS011;7538;53.626;9.906;2023-09-18T10:32:57;5.80;;;4.55;;
14892;SDS011;7538;53.626;9.906;2023-09-18T10:35:26;6.05;;;4.38;;
14892;SDS011;7538;53.626;9.906;2023-09-18T10:37:54;6.22;;;5.32;;
14892;SDS011;7538;53.626;9.906;2023-09-18T10:40:21;5.75;;;5.18;;
14892;SDS011;7538;53.626;9.906;2023-09-18T10:42:52;5.60;;;5.00;;
14892;SDS011;7538;53.626;9.906;2023-09-18T10:45:23;5.95;;;4.63;;
14892;SDS011;7538;53.626;9.906;2023-09-18T10:47:52;7.82;;;4.70;;
14892;SDS011;7538;53.626;9.906;2023-09-18T10:50:23;7.88;;;4.85;;
14892;SDS011;7538;53.626;9.906;2023-09-18T10:52:51;7.32;;;4.65;;
14892;SDS011;7538;53.626;9.906;2023-09-18T10:55:18;7.30;;;5.10;;
14892;SDS011;7538;53.626;9.906;2023-09-18T10:57:49;7.22;;;4.95;;
14892;SDS011;7538;53.626;9.906;2023-09-18T11:00:19;6.65;;;4.72;;
14892;SDS011;7538;53.626;9.906;2023-09-18T11:02:48;5.35;;;4.28;;
14892;SDS011;7538;53.626;9.906;2023-09-18T11:05:26;4.63;;;4.10;;
14892;SDS011;7538;53.626;9.906;2023-09-18T11:10:59;7.72;;;4.88;;
14892;SDS011;7538;53.626;9.906;2023-09-18T11:13:30;5.65;;;4.82;;
14892;SDS011;7538;53.626;9.906;2023-09-18T11:16:14;7.03;;;4.95;;
14892;SDS011;7538;53.626;9.906;2023-09-18T11:18:45;7.28;;;4.60;;
14892;SDS011;7538;53.626;9.906;2023-09-18T11:21:15;5.07;;;4.05;;
14892;SDS011;7538;53.626;9.906;2023-09-18T11:23:43;7.85;;;4.78;;
14892;SDS011;7538;53.626;9.906;2023-09-18T11:26:11;6.65;;;4.18;;
14892;SDS011;7538;53.626;9.906;2023-09-18T11:28:38;6.15;;;4.30;;
14892;SDS011;7538;53.626;9.906;2023-09-18T11:31:05;5.90;;;4.03;;
14892;SDS011;7538;53.626;9.906;2023-09-18T11:33:35;4.32;;;3.80;;
14892;SDS011;7538;53.626;9.906;2023-09-18T11:36:03;8.63;;;4.75;;
14892;SDS011;7538;53.626;9.906;2023-09-18T11:38:32;5.75;;;4.50;;
14892;SDS011;7538;53.626;9.906;2023-09-18T11:41:01;9.48;;;3.97;;
14892;SDS011;7538;53.626;9.906;2023-09-18T11:43:48;8.73;;;4.93;;
14892;SDS011;7538;53.626;9.906;2023-09-18T11:46:17;5.43;;;4.43;;
14892;SDS011;7538;53.626;9.906;2023-09-18T11:48:48;9.48;;;3.97;;
14892;SDS011;7538;53.626;9.906;2023-09-18T11:51:22;6.00;;;3.72;;
14892;SDS011;7538;53.626;9.906;2023-09-18T11:53:50;9.05;;;4.05;;
14892;SDS011;7538;53.626;9.906;2023-09-18T11:56:21;7.05;;;4.18;;
14892;SDS011;7538;53.626;9.906;2023-09-18T11:58:48;4.00;;;3.60;;
14892;SDS011;7538;53.626;9.906;2023-09-18T12:01:16;7.70;;;4.38;;
14892;SDS011;7538;53.626;9.906;2023-09-18T12:03:43;8.60;;;4.10;;
14892;SDS011;7538;53.626;9.906;2023-09-18T12:06:15;11.88;;;4.50;;
14892;SDS011;7538;53.626;9.906;2023-09-18T12:08:42;7.35;;;4.35;;
14892;SDS011;7538;53.626;9.906;2023-09-18T12:11:11;6.10;;;4.10;;
14892;SDS011;7538;53.626;9.906;2023-09-18T12:13:41;8.98;;;4.20;;
14892;SDS011;7538;53.626;9.906;2023-09-18T12:16:08;7.50;;;3.75;;
14892;SDS011;7538;53.626;9.906;2023-09-18T12:18:35;5.90;;;3.92;;
14892;SDS011;7538;53.626;9.906;2023-09-18T12:21:05;6.35;;;4.03;;
14892;SDS011;7538;53.626;9.906;2023-09-18T12:23:37;9.10;;;4.40;;
14892;SDS011;7538;53.626;9.906;2023-09-18T12:26:05;7.80;;;3.88;;
14892;SDS011;7538;53.626;9.906;2023-09-18T12:28:33;4.72;;;3.63;;
14892;SDS011;7538;53.626;9.906;2023-09-18T12:31:01;6.90;;;4.15;;
14892;SDS011;7538;53.626;9.906;2023-09-18T12:33:30;6.65;;;4.20;;
14892;SDS011;7538;53.626;9.906;2023-09-18T12:36:02;6.38;;;3.60;;
14892;SDS011;7538;53.626;9.906;2023-09-18T12:38:30;7.18;;;4.10;;
14892;SDS011;7538;53.626;9.906;2023-09-18T12:40:58;6.80;;;3.85;;
14892;SDS011;7538;53.626;9.906;2023-09-18T12:43:32;4.88;;;3.22;;
14892;SDS011;7538;53.626;9.906;2023-09-18T12:46:04;6.45;;;3.88;;
14892;SDS011;7538;53.626;9.906;2023-09-18T12:48:32;6.03;;;3.58;;
14892;SDS011;7538;53.626;9.906;2023-09-18T12:51:03;6.63;;;3.90;;
14892;SDS011;7538;53.626;9.906;2023-09-18T12:53:30;6.93;;;3.90;;
14892;SDS011;7538;53.626;9.906;2023-09-18T12:56:09;7.13;;;3.95;;
14892;SDS011;7538;53.626;9.906;2023-09-18T12:58:37;6.53;;;3.92;;
14892;SDS011;7538;53.626;9.906;2023-09-18T13:01:05;5.78;;;3.70;;
14892;SDS011;7538;53.626;9.906;2023-09-18T13:03:34;6.63;;;3.78;;
14892;SDS011;7538;53.626;9.906;2023-09-18T13:06:10;5.20;;;3.33;;
14892;SDS011;7538;53.626;9.906;2023-09-18T13:08:38;6.47;;;3.70;;
14892;SDS011;7538;53.626;9.906;2023-09-18T13:11:05;9.93;;;4.05;;
14892;SDS011;7538;53.626;9.906;2023-09-18T13:13:34;5.63;;;3.70;;
14892;SDS011;7538;53.626;9.906;2023-09-18T13:16:04;6.40;;;3.47;;
14892;SDS011;7538;53.626;9.906;2023-09-18T13:18:31;5.05;;;3.20;;
14892;SDS011;7538;53.626;9.906;2023-09-18T13:20:58;8.32;;;3.70;;
14892;SDS011;7538;53.626;9.906;2023-09-18T13:23:28;6.63;;;3.40;;
14892;SDS011;7538;53.626;9.906;2023-09-18T13:25:59;8.32;;;3.38;;
14892;SDS011;7538;53.626;9.906;2023-09-18T13:28:26;6.05;;;3.00;;
14892;SDS011;7538;53.626;9.906;2023-09-18T13:30:57;5.22;;;3.17;;
14892;SDS011;7538;53.626;9.906;2023-09-18T13:33:24;5.63;;;3.55;;
14892;SDS011;7538;53.626;9.906;2023-09-18T13:35:53;5.90;;;3.33;;
14892;SDS011;7538;53.626;9.906;2023-09-18T13:38:21;4.90;;;3.22;;
14892;SDS011;7538;53.626;9.906;2023-09-18T13:40:48;5.40;;;3.30;;
14892;SDS011;7538;53.626;9.906;2023-09-18T13:43:15;5.68;;;3.72;;
14892;SDS011;7538;53.626;9.906;2023-09-18T13:45:43;6.05;;;3.20;;
14892;SDS011;7538;53.626;9.906;2023-09-18T13:48:12;6.57;;;3.85;;
14892;SDS011;7538;53.626;9.906;2023-09-18T13:50:40;7.00;;;4.28;;
14892;SDS011;7538;53.626;9.906;2023-09-18T13:53:07;3.58;;;3.15;;
14892;SDS011;7538;53.626;9.906;2023-09-18T13:55:34;6.15;;;3.08;;
14892;SDS011;7538;53.626;9.906;2023-09-18T13:58:01;8.45;;;3.78;;
14892;SDS011;7538;53.626;9.906;2023-09-18T14:00:29;4.97;;;3.55;;
14892;SDS011;7538;53.626;9.906;2023-09-18T14:02:58;5.72;;;3.22;;
14892;SDS011;7538;53.626;9.906;2023-09-18T14:05:27;4.50;;;3.47;;
14892;SDS011;7538;53.626;9.906;2023-09-18T14:07:55;5.57;;;3.45;;
14892;SDS011;7538;53.626;9.906;2023-09-18T14:10:24;5.13;;;3.80;;
14892;SDS011;7538;53.626;9.906;2023-09-18T14:12:51;8.27;;;3.50;;
14892;SDS011;7538;53.626;9.906;2023-09-18T14:15:18;5.38;;;4.00;;
14892;SDS011;7538;53.626;9.906;2023-09-18T14:17:46;6.50;;;3.35;;
14892;SDS011;7538;53.626;9.906;2023-09-18T14:20:13;7.15;;;3.70;;
14892;SDS011;7538;53.626;9.906;2023-09-18T14:22:46;5.88;;;3.55;;
14892;SDS011;7538;53.626;9.906;2023-09-18T14:25:14;4.72;;;3.03;;
14892;SDS011;7538;53.626;9.906;2023-09-18T14:27:42;6.78;;;3.38;;
14892;SDS011;7538;53.626;9.906;2023-09-18T14:30:10;7.10;;;3.33;;
14892;SDS011;7538;53.626;9.906;2023-09-18T14:32:38;4.60;;;3.10;;
14892;SDS011;7538;53.626;9.906;2023-09-18T14:35:06;4.85;;;3.17;;
14892;SDS011;7538;53.626;9.906;2023-09-18T14:37:33;7.95;;;3.72;;
14892;SDS011;7538;53.626;9.906;2023-09-18T14:40:02;7.45;;;3.38;;
14892;SDS011;7538;53.626;9.906;2023-09-18T14:42:30;3.88;;;3.20;;
14892;SDS011;7538;53.626;9.906;2023-09-18T14:44:58;5.20;;;3.30;;
14892;SDS011;7538;53.626;9.906;2023-09-18T14:47:26;5.20;;;3.38;;
14892;SDS011;7538;53.626;9.906;2023-09-18T14:49:54;5.63;;;3.10;;
14892;SDS011;7538;53.626;9.906;2023-09-18T14:52:23;4.35;;;3.25;;
14892;SDS011;7538;53.626;9.906;2023-09-18T14:54:50;5.63;;;3.45;;
14892;SDS011;7538;53.626;9.906;2023-09-18T14:57:19;5.05;;;3.40;;
14892;SDS011;7538;53.626;9.906;2023-09-18T14:59:46;5.43;;;2.90;;
14892;SDS011;7538;53.626;9.906;2023-09-18T15:02:13;6.80;;;3.60;;
14892;SDS011;7538;53.626;9.906;2023-09-18T15:04:41;5.15;;;3.78;;
14892;SDS011;7538;53.626;9.906;2023-09-18T15:07:08;4.30;;;2.97;;
14892;SDS011;7538;53.626;9.906;2023-09-18T15:09:35;4.38;;;3.35;;